Meltonville, Iowa
Current Conditions -  °F | °C
As of 11:16 AM on Wednesday 26 Nov 2014 (Local Time) from KAUM Reporting Station
Light Snow Light Snow  
Wind Chill: 18°   Ceiling: 400
Heat Index: 25°   Visibility: 0.75mi
Dew Point: 23°   Wind: 6mph
Humidity: 93%   Direction: 30°NNE
Pressure: 30.09"   Gusts: NA
Location:  43.4276°N, 92.9158°W
Report Text: KAUM 261716Z AUTO 03005KT 3/4SM -SN OVC004 M04/M05 A3009 RMK AO2
Loading
Personal Weather Stations






























Interactive Weather Map New forecast layout! Learn more

10-Day Weather Forecast

Advertisements
Track Severe Weather on mobile